sensor_id;sensor_type;location;lat;lon;timestamp;P1;durP1;ratioP1;P2;durP2;ratioP2
8538;SDS011;4307;53.868;11.680;2024-03-23T00:56:03;19.37;;;4.50;;
8538;SDS011;4307;53.868;11.680;2024-03-23T00:58:30;17.47;;;4.43;;
8538;SDS011;4307;53.868;11.680;2024-03-23T01:00:55;22.33;;;4.60;;
8538;SDS011;4307;53.868;11.680;2024-03-23T01:03:22;15.87;;;4.47;;
8538;SDS011;4307;53.868;11.680;2024-03-23T01:05:48;27.17;;;4.57;;
8538;SDS011;4307;53.868;11.680;2024-03-23T01:08:14;21.93;;;4.17;;
8538;SDS011;4307;53.868;11.680;2024-03-23T01:10:41;17.43;;;4.20;;
8538;SDS011;4307;53.868;11.680;2024-03-23T01:13:08;21.43;;;4.20;;
8538;SDS011;4307;53.868;11.680;2024-03-23T01:15:34;16.70;;;3.90;;
8538;SDS011;4307;53.868;11.680;2024-03-23T01:18:00;28.00;;;4.80;;
8538;SDS011;4307;53.868;11.680;2024-03-23T01:20:26;22.50;;;3.87;;
8538;SDS011;4307;53.868;11.680;2024-03-23T01:22:53;20.77;;;4.30;;
8538;SDS011;4307;53.868;11.680;2024-03-23T01:25:19;17.37;;;4.17;;
8538;SDS011;4307;53.868;11.680;2024-03-23T01:27:47;14.90;;;4.27;;
8538;SDS011;4307;53.868;11.680;2024-03-23T01:30:13;16.97;;;4.33;;
8538;SDS011;4307;53.868;11.680;2024-03-23T01:32:40;17.33;;;4.73;;
8538;SDS011;4307;53.868;11.680;2024-03-23T01:35:06;16.17;;;4.00;;
8538;SDS011;4307;53.868;11.680;2024-03-23T01:37:33;21.87;;;5.03;;
8538;SDS011;4307;53.868;11.680;2024-03-23T01:39:58;15.53;;;3.87;;
8538;SDS011;4307;53.868;11.680;2024-03-23T01:42:25;17.93;;;4.60;;
8538;SDS011;4307;53.868;11.680;2024-03-23T01:44:52;17.07;;;3.70;;
8538;SDS011;4307;53.868;11.680;2024-03-23T01:47:18;15.73;;;3.83;;
8538;SDS011;4307;53.868;11.680;2024-03-23T01:49:44;20.17;;;4.33;;
8538;SDS011;4307;53.868;11.680;2024-03-23T01:52:11;20.87;;;4.20;;
8538;SDS011;4307;53.868;11.680;2024-03-23T01:54:36;13.47;;;3.80;;
8538;SDS011;4307;53.868;11.680;2024-03-23T01:57:04;15.30;;;4.00;;
8538;SDS011;4307;53.868;11.680;2024-03-23T01:59:30;21.33;;;4.83;;
8538;SDS011;4307;53.868;11.680;2024-03-23T02:01:58;19.60;;;4.47;;
8538;SDS011;4307;53.868;11.680;2024-03-23T02:04:23;22.37;;;5.53;;
8538;SDS011;4307;53.868;11.680;2024-03-23T02:06:50;17.60;;;4.57;;
8538;SDS011;4307;53.868;11.680;2024-03-23T02:09:16;19.97;;;4.23;;
8538;SDS011;4307;53.868;11.680;2024-03-23T02:11:43;21.67;;;4.30;;
8538;SDS011;4307;53.868;11.680;2024-03-23T02:14:08;17.77;;;3.97;;
8538;SDS011;4307;53.868;11.680;2024-03-23T02:16:35;17.67;;;4.27;;
8538;SDS011;4307;53.868;11.680;2024-03-23T02:19:02;18.63;;;4.07;;
8538;SDS011;4307;53.868;11.680;2024-03-23T02:21:29;15.50;;;3.67;;
8538;SDS011;4307;53.868;11.680;2024-03-23T02:23:58;25.00;;;4.50;;
8538;SDS011;4307;53.868;11.680;2024-03-23T02:26:25;20.47;;;4.37;;
8538;SDS011;4307;53.868;11.680;2024-03-23T02:28:50;20.53;;;3.73;;
8538;SDS011;4307;53.868;11.680;2024-03-23T02:31:17;13.97;;;3.67;;
8538;SDS011;4307;53.868;11.680;2024-03-23T02:33:43;15.53;;;3.93;;
8538;SDS011;4307;53.868;11.680;2024-03-23T02:36:09;18.33;;;4.00;;
8538;SDS011;4307;53.868;11.680;2024-03-23T02:38:35;15.37;;;4.03;;
8538;SDS011;4307;53.868;11.680;2024-03-23T02:41:04;17.97;;;3.93;;
8538;SDS011;4307;53.868;11.680;2024-03-23T02:43:29;18.87;;;4.20;;
8538;SDS011;4307;53.868;11.680;2024-03-23T02:45:56;19.13;;;3.90;;
8538;SDS011;4307;53.868;11.680;2024-03-23T02:48:22;21.97;;;4.33;;
8538;SDS011;4307;53.868;11.680;2024-03-23T02:50:49;17.93;;;4.40;;
8538;SDS011;4307;53.868;11.680;2024-03-23T02:53:14;13.50;;;3.67;;
8538;SDS011;4307;53.868;11.680;2024-03-23T02:55:41;18.60;;;4.30;;
8538;SDS011;4307;53.868;11.680;2024-03-23T02:58:08;19.53;;;4.00;;
8538;SDS011;4307;53.868;11.680;2024-03-23T03:00:35;14.90;;;3.93;;
8538;SDS011;4307;53.868;11.680;2024-03-23T03:03:00;11.77;;;3.27;;
8538;SDS011;4307;53.868;11.680;2024-03-23T03:05:28;17.03;;;3.90;;
8538;SDS011;4307;53.868;11.680;2024-03-23T03:07:53;21.77;;;4.93;;
8538;SDS011;4307;53.868;11.680;2024-03-23T03:10:20;20.53;;;4.67;;
8538;SDS011;4307;53.868;11.680;2024-03-23T03:12:46;20.20;;;4.53;;
8538;SDS011;4307;53.868;11.680;2024-03-23T03:15:14;16.43;;;4.40;;
8538;SDS011;4307;53.868;11.680;2024-03-23T03:17:40;28.00;;;4.97;;
8538;SDS011;4307;53.868;11.680;2024-03-23T03:20:07;17.63;;;4.10;;
8538;SDS011;4307;53.868;11.680;2024-03-23T03:22:38;13.97;;;3.67;;
8538;SDS011;4307;53.868;11.680;2024-03-23T03:25:05;14.00;;;4.03;;
8538;SDS011;4307;53.868;11.680;2024-03-23T03:27:32;17.33;;;4.17;;
8538;SDS011;4307;53.868;11.680;2024-03-23T03:29:59;15.37;;;3.80;;
8538;SDS011;4307;53.868;11.680;2024-03-23T03:32:27;22.83;;;4.27;;
8538;SDS011;4307;53.868;11.680;2024-03-23T03:34:55;24.93;;;4.53;;
8538;SDS011;4307;53.868;11.680;2024-03-23T03:37:20;19.83;;;4.17;;
8538;SDS011;4307;53.868;11.680;2024-03-23T03:39:47;16.10;;;4.10;;
8538;SDS011;4307;53.868;11.680;2024-03-23T03:42:13;12.73;;;3.47;;
8538;SDS011;4307;53.868;11.680;2024-03-23T03:44:39;21.87;;;4.10;;
8538;SDS011;4307;53.868;11.680;2024-03-23T03:47:05;19.00;;;4.27;;
8538;SDS011;4307;53.868;11.680;2024-03-23T03:49:34;12.00;;;4.13;;
8538;SDS011;4307;53.868;11.680;2024-03-23T03:51:59;22.23;;;4.60;;
8538;SDS011;4307;53.868;11.680;2024-03-23T03:54:27;17.90;;;3.60;;
8538;SDS011;4307;53.868;11.680;2024-03-23T03:56:52;23.17;;;3.97;;
8538;SDS011;4307;53.868;11.680;2024-03-23T03:59:19;19.37;;;3.87;;
8538;SDS011;4307;53.868;11.680;2024-03-23T04:01:45;19.67;;;3.93;;
8538;SDS011;4307;53.868;11.680;2024-03-23T04:04:12;16.50;;;4.20;;
8538;SDS011;4307;53.868;11.680;2024-03-23T04:06:40;12.13;;;3.60;;
8538;SDS011;4307;53.868;11.680;2024-03-23T04:09:06;28.00;;;4.07;;
8538;SDS011;4307;53.868;11.680;2024-03-23T04:11:32;17.07;;;4.00;;
8538;SDS011;4307;53.868;11.680;2024-03-23T04:13:59;21.10;;;3.67;;
8538;SDS011;4307;53.868;11.680;2024-03-23T04:16:26;22.37;;;3.90;;
8538;SDS011;4307;53.868;11.680;2024-03-23T04:18:53;19.60;;;4.10;;
8538;SDS011;4307;53.868;11.680;2024-03-23T04:21:19;23.53;;;4.27;;
8538;SDS011;4307;53.868;11.680;2024-03-23T04:23:47;23.33;;;3.77;;
8538;SDS011;4307;53.868;11.680;2024-03-23T04:26:13;18.90;;;4.07;;
8538;SDS011;4307;53.868;11.680;2024-03-23T04:28:40;21.30;;;3.77;;
8538;SDS011;4307;53.868;11.680;2024-03-23T04:31:05;18.73;;;3.80;;
8538;SDS011;4307;53.868;11.680;2024-03-23T04:33:32;17.07;;;3.60;;
8538;SDS011;4307;53.868;11.680;2024-03-23T04:35:58;16.70;;;3.77;;
8538;SDS011;4307;53.868;11.680;2024-03-23T04:38:24;17.10;;;4.27;;
8538;SDS011;4307;53.868;11.680;2024-03-23T04:40:56;14.13;;;3.37;;
8538;SDS011;4307;53.868;11.680;2024-03-23T04:43:23;20.80;;;3.97;;
8538;SDS011;4307;53.868;11.680;2024-03-23T04:45:49;21.37;;;4.37;;
8538;SDS011;4307;53.868;11.680;2024-03-23T04:48:16;24.23;;;3.90;;
8538;SDS011;4307;53.868;11.680;2024-03-23T04:50:43;23.93;;;3.27;;
8538;SDS011;4307;53.868;11.680;2024-03-23T04:53:10;18.07;;;4.00;;
8538;SDS011;4307;53.868;11.680;2024-03-23T04:55:37;22.43;;;5.43;;
8538;SDS011;4307;53.868;11.680;2024-03-23T04:58:05;18.43;;;4.50;;
8538;SDS011;4307;53.868;11.680;2024-03-23T05:00:30;22.07;;;4.00;;
8538;SDS011;4307;53.868;11.680;2024-03-23T05:02:57;14.00;;;3.53;;
8538;SDS011;4307;53.868;11.680;2024-03-23T05:05:24;17.63;;;3.70;;
8538;SDS011;4307;53.868;11.680;2024-03-23T05:07:49;16.43;;;3.63;;
8538;SDS011;4307;53.868;11.680;2024-03-23T05:10:16;22.50;;;4.40;;
8538;SDS011;4307;53.868;11.680;2024-03-23T05:12:42;19.93;;;4.23;;
8538;SDS011;4307;53.868;11.680;2024-03-23T05:15:11;28.17;;;4.67;;
8538;SDS011;4307;53.868;11.680;2024-03-23T05:17:37;33.03;;;4.40;;
8538;SDS011;4307;53.868;11.680;2024-03-23T05:20:04;19.07;;;4.30;;
8538;SDS011;4307;53.868;11.680;2024-03-23T05:22:34;10.87;;;3.77;;
8538;SDS011;4307;53.868;11.680;2024-03-23T05:25:01;20.73;;;4.40;;
8538;SDS011;4307;53.868;11.680;2024-03-23T05:27:29;19.10;;;4.23;;
8538;SDS011;4307;53.868;11.680;2024-03-23T05:29:56;26.20;;;3.80;;
8538;SDS011;4307;53.868;11.680;2024-03-23T05:32:23;22.00;;;4.40;;
8538;SDS011;4307;53.868;11.680;2024-03-23T05:34:50;17.17;;;4.03;;
8538;SDS011;4307;53.868;11.680;2024-03-23T05:37:20;21.80;;;5.77;;
8538;SDS011;4307;53.868;11.680;2024-03-23T05:39:47;19.33;;;4.63;;
8538;SDS011;4307;53.868;11.680;2024-03-23T05:42:14;20.00;;;4.43;;
8538;SDS011;4307;53.868;11.680;2024-03-23T05:44:42;15.73;;;4.57;;
8538;SDS011;4307;53.868;11.680;2024-03-23T05:47:08;18.73;;;4.43;;
8538;SDS011;4307;53.868;11.680;2024-03-23T05:49:37;12.33;;;3.67;;
8538;SDS011;4307;53.868;11.680;2024-03-23T05:52:02;15.70;;;3.37;;
8538;SDS011;4307;53.868;11.680;2024-03-23T05:54:29;12.80;;;4.30;;
8538;SDS011;4307;53.868;11.680;2024-03-23T05:56:55;27.67;;;4.30;;
8538;SDS011;4307;53.868;11.680;2024-03-23T05:59:22;23.23;;;4.50;;
8538;SDS011;4307;53.868;11.680;2024-03-23T06:01:47;20.97;;;4.43;;
8538;SDS011;4307;53.868;11.680;2024-03-23T06:04:14;22.73;;;4.20;;
8538;SDS011;4307;53.868;11.680;2024-03-23T06:06:41;15.47;;;3.70;;
8538;SDS011;4307;53.868;11.680;2024-03-23T06:09:08;15.87;;;4.30;;
8538;SDS011;4307;53.868;11.680;2024-03-23T06:11:33;19.10;;;4.33;;
8538;SDS011;4307;53.868;11.680;2024-03-23T06:14:00;22.00;;;4.67;;
8538;SDS011;4307;53.868;11.680;2024-03-23T06:16:26;20.87;;;4.77;;
8538;SDS011;4307;53.868;11.680;2024-03-23T06:18:52;24.73;;;3.63;;
8538;SDS011;4307;53.868;11.680;2024-03-23T06:21:19;22.77;;;4.10;;
8538;SDS011;4307;53.868;11.680;2024-03-23T06:23:51;18.17;;;4.17;;
8538;SDS011;4307;53.868;11.680;2024-03-23T06:26:17;17.70;;;3.73;;
8538;SDS011;4307;53.868;11.680;2024-03-23T06:28:44;16.77;;;4.23;;
8538;SDS011;4307;53.868;11.680;2024-03-23T06:31:10;20.13;;;4.30;;
8538;SDS011;4307;53.868;11.680;2024-03-23T06:33:36;21.63;;;4.00;;
8538;SDS011;4307;53.868;11.680;2024-03-23T06:36:03;16.17;;;4.63;;
8538;SDS011;4307;53.868;11.680;2024-03-23T06:38:30;18.20;;;3.53;;
8538;SDS011;4307;53.868;11.680;2024-03-23T06:40:58;25.47;;;4.70;;
8538;SDS011;4307;53.868;11.680;2024-03-23T06:43:23;18.37;;;4.37;;
8538;SDS011;4307;53.868;11.680;2024-03-23T06:45:53;19.07;;;3.90;;
8538;SDS011;4307;53.868;11.680;2024-03-23T06:48:19;13.67;;;3.50;;
8538;SDS011;4307;53.868;11.680;2024-03-23T06:50:46;19.90;;;4.10;;
8538;SDS011;4307;53.868;11.680;2024-03-23T06:53:12;16.30;;;4.07;;
8538;SDS011;4307;53.868;11.680;2024-03-23T06:55:38;20.57;;;4.03;;
8538;SDS011;4307;53.868;11.680;2024-03-23T06:58:06;22.73;;;4.67;;
8538;SDS011;4307;53.868;11.680;2024-03-23T07:00:32;25.10;;;4.30;;
8538;SDS011;4307;53.868;11.680;2024-03-23T07:02:58;18.17;;;4.53;;
8538;SDS011;4307;53.868;11.680;2024-03-23T07:05:25;25.57;;;3.90;;
8538;SDS011;4307;53.868;11.680;2024-03-23T07:07:51;18.07;;;3.63;;
8538;SDS011;4307;53.868;11.680;2024-03-23T07:10:17;13.53;;;3.73;;
8538;SDS011;4307;53.868;11.680;2024-03-23T07:12:43;17.03;;;4.33;;
8538;SDS011;4307;53.868;11.680;2024-03-23T07:15:11;20.70;;;4.40;;
8538;SDS011;4307;53.868;11.680;2024-03-23T07:17:37;26.67;;;4.63;;
8538;SDS011;4307;53.868;11.680;2024-03-23T07:20:04;17.50;;;4.20;;
8538;SDS011;4307;53.868;11.680;2024-03-23T07:22:30;20.57;;;4.43;;
8538;SDS011;4307;53.868;11.680;2024-03-23T07:24:57;25.20;;;4.47;;
8538;SDS011;4307;53.868;11.680;2024-03-23T07:27:26;17.87;;;4.07;;
8538;SDS011;4307;53.868;11.680;2024-03-23T07:29:51;18.13;;;3.67;;
8538;SDS011;4307;53.868;11.680;2024-03-23T07:32:21;14.37;;;4.43;;
8538;SDS011;4307;53.868;11.680;2024-03-23T07:34:47;14.97;;;4.00;;
8538;SDS011;4307;53.868;11.680;2024-03-23T07:37:13;15.97;;;4.23;;
8538;SDS011;4307;53.868;11.680;2024-03-23T07:39:39;17.33;;;4.27;;
8538;SDS011;4307;53.868;11.680;2024-03-23T07:42:06;18.57;;;4.17;;
8538;SDS011;4307;53.868;11.680;2024-03-23T07:44:32;18.33;;;4.70;;
8538;SDS011;4307;53.868;11.680;2024-03-23T07:47:00;18.63;;;4.07;;
8538;SDS011;4307;53.868;11.680;2024-03-23T07:49:27;22.93;;;4.43;;
8538;SDS011;4307;53.868;11.680;2024-03-23T07:51:53;15.40;;;4.37;;
8538;SDS011;4307;53.868;11.680;2024-03-23T07:54:19;18.20;;;4.03;;
8538;SDS011;4307;53.868;11.680;2024-03-23T07:56:46;23.00;;;4.83;;
8538;SDS011;4307;53.868;11.680;2024-03-23T07:59:12;16.00;;;4.00;;
8538;SDS011;4307;53.868;11.680;2024-03-23T08:01:38;23.37;;;4.47;;
8538;SDS011;4307;53.868;11.680;2024-03-23T08:04:04;18.43;;;4.43;;
8538;SDS011;4307;53.868;11.680;2024-03-23T08:06:33;17.37;;;4.53;;
8538;SDS011;4307;53.868;11.680;2024-03-23T08:08:58;18.10;;;4.30;;
8538;SDS011;4307;53.868;11.680;2024-03-23T08:11:25;18.63;;;4.13;;
8538;SDS011;4307;53.868;11.680;2024-03-23T08:13:51;18.83;;;4.17;;
8538;SDS011;4307;53.868;11.680;2024-03-23T08:16:18;16.67;;;3.97;;
8538;SDS011;4307;53.868;11.680;2024-03-23T08:18:43;18.43;;;4.63;;
8538;SDS011;4307;53.868;11.680;2024-03-23T08:21:10;23.27;;;4.83;;
8538;SDS011;4307;53.868;11.680;2024-03-23T08:23:37;18.33;;;5.00;;
8538;SDS011;4307;53.868;11.680;2024-03-23T08:26:05;17.33;;;4.20;;
8538;SDS011;4307;53.868;11.680;2024-03-23T08:28:32;17.50;;;5.43;;
8538;SDS011;4307;53.868;11.680;2024-03-23T08:31:00;16.80;;;5.17;;
8538;SDS011;4307;53.868;11.680;2024-03-23T08:33:27;19.03;;;4.97;;
8538;SDS011;4307;53.868;11.680;2024-03-23T08:35:55;12.13;;;4.73;;
8538;SDS011;4307;53.868;11.680;2024-03-23T08:38:22;16.23;;;4.53;;
8538;SDS011;4307;53.868;11.680;2024-03-23T08:40:57;12.53;;;3.57;;
8538;SDS011;4307;53.868;11.680;2024-03-23T08:43:23;10.33;;;4.17;;
8538;SDS011;4307;53.868;11.680;2024-03-23T08:45:49;18.40;;;5.30;;
8538;SDS011;4307;53.868;11.680;2024-03-23T08:48:15;17.90;;;5.10;;
8538;SDS011;4307;53.868;11.680;2024-03-23T08:50:42;12.80;;;4.53;;
8538;SDS011;4307;53.868;11.680;2024-03-23T08:53:08;17.33;;;5.20;;
8538;SDS011;4307;53.868;11.680;2024-03-23T08:55:35;14.10;;;4.03;;
8538;SDS011;4307;53.868;11.680;2024-03-23T08:58:02;17.43;;;4.57;;
8538;SDS011;4307;53.868;11.680;2024-03-23T09:00:29;15.90;;;3.93;;
8538;SDS011;4307;53.868;11.680;2024-03-23T09:02:55;13.87;;;4.33;;
8538;SDS011;4307;53.868;11.680;2024-03-23T09:05:22;15.40;;;3.60;;
8538;SDS011;4307;53.868;11.680;2024-03-23T09:07:49;20.03;;;4.57;;
8538;SDS011;4307;53.868;11.680;2024-03-23T09:10:15;16.80;;;4.00;;
8538;SDS011;4307;53.868;11.680;2024-03-23T09:12:41;15.73;;;3.87;;
8538;SDS011;4307;53.868;11.680;2024-03-23T09:15:09;11.63;;;3.73;;
8538;SDS011;4307;53.868;11.680;2024-03-23T09:17:35;12.03;;;3.97;;
8538;SDS011;4307;53.868;11.680;2024-03-23T09:20:02;11.33;;;3.47;;
8538;SDS011;4307;53.868;11.680;2024-03-23T09:22:29;15.93;;;4.33;;
8538;SDS011;4307;53.868;11.680;2024-03-23T09:24:56;12.50;;;3.50;;
8538;SDS011;4307;53.868;11.680;2024-03-23T09:27:21;11.97;;;3.60;;
8538;SDS011;4307;53.868;11.680;2024-03-23T09:29:48;12.13;;;2.73;;
8538;SDS011;4307;53.868;11.680;2024-03-23T09:32:15;14.87;;;3.57;;
8538;SDS011;4307;53.868;11.680;2024-03-23T09:34:43;10.73;;;3.70;;
8538;SDS011;4307;53.868;11.680;2024-03-23T09:37:08;17.70;;;3.63;;
8538;SDS011;4307;53.868;11.680;2024-03-23T09:39:35;16.30;;;4.00;;
8538;SDS011;4307;53.868;11.680;2024-03-23T09:42:00;12.63;;;3.67;;
8538;SDS011;4307;53.868;11.680;2024-03-23T09:44:27;13.00;;;3.13;;
8538;SDS011;4307;53.868;11.680;2024-03-23T09:46:54;11.97;;;3.57;;
8538;SDS011;4307;53.868;11.680;2024-03-23T09:49:23;14.20;;;3.17;;
8538;SDS011;4307;53.868;11.680;2024-03-23T09:51:49;10.43;;;3.57;;
8538;SDS011;4307;53.868;11.680;2024-03-23T09:54:17;13.10;;;3.80;;
8538;SDS011;4307;53.868;11.680;2024-03-23T09:56:42;17.57;;;4.07;;
8538;SDS011;4307;53.868;11.680;2024-03-23T09:59:09;10.30;;;3.60;;
8538;SDS011;4307;53.868;11.680;2024-03-23T10:01:35;13.47;;;3.77;;
8538;SDS011;4307;53.868;11.680;2024-03-23T10:04:02;17.13;;;3.93;;
8538;SDS011;4307;53.868;11.680;2024-03-23T10:06:29;9.50;;;3.77;;
8538;SDS011;4307;53.868;11.680;2024-03-23T10:08:56;11.37;;;3.17;;
8538;SDS011;4307;53.868;11.680;2024-03-23T10:11:22;8.13;;;3.07;;
8538;SDS011;4307;53.868;11.680;2024-03-23T10:13:50;11.97;;;4.00;;
8538;SDS011;4307;53.868;11.680;2024-03-23T10:16:20;7.93;;;3.27;;
8538;SDS011;4307;53.868;11.680;2024-03-23T10:18:48;15.47;;;3.43;;
8538;SDS011;4307;53.868;11.680;2024-03-23T10:21:14;11.07;;;3.03;;
8538;SDS011;4307;53.868;11.680;2024-03-23T10:23:43;9.57;;;3.30;;
8538;SDS011;4307;53.868;11.680;2024-03-23T10:26:13;11.27;;;3.10;;
8538;SDS011;4307;53.868;11.680;2024-03-23T10:28:56;8.70;;;3.53;;
8538;SDS011;4307;53.868;11.680;2024-03-23T10:31:24;10.50;;;3.33;;
8538;SDS011;4307;53.868;11.680;2024-03-23T10:33:51;12.20;;;2.93;;
8538;SDS011;4307;53.868;11.680;2024-03-23T10:36:19;7.43;;;2.70;;
8538;SDS011;4307;53.868;11.680;2024-03-23T10:38:49;11.10;;;3.23;;
8538;SDS011;4307;53.868;11.680;2024-03-23T10:41:15;7.67;;;2.67;;
8538;SDS011;4307;53.868;11.680;2024-03-23T10:43:42;6.93;;;2.80;;
8538;SDS011;4307;53.868;11.680;2024-03-23T10:46:10;7.13;;;2.43;;
8538;SDS011;4307;53.868;11.680;2024-03-23T10:48:37;8.67;;;2.70;;
8538;SDS011;4307;53.868;11.680;2024-03-23T10:51:03;10.43;;;2.73;;
8538;SDS011;4307;53.868;11.680;2024-03-23T10:53:30;9.80;;;3.40;;
8538;SDS011;4307;53.868;11.680;2024-03-23T10:56:00;7.50;;;2.50;;
8538;SDS011;4307;53.868;11.680;2024-03-23T10:58:27;6.63;;;2.00;;
8538;SDS011;4307;53.868;11.680;2024-03-23T11:00:56;11.13;;;3.03;;
8538;SDS011;4307;53.868;11.680;2024-03-23T11:03:29;9.77;;;2.60;;
8538;SDS011;4307;53.868;11.680;2024-03-23T11:05:59;9.03;;;2.60;;
8538;SDS011;4307;53.868;11.680;2024-03-23T11:08:33;10.67;;;2.03;;
8538;SDS011;4307;53.868;11.680;2024-03-23T11:11:18;7.60;;;2.17;;
8538;SDS011;4307;53.868;11.680;2024-03-23T11:13:47;5.97;;;2.20;;
8538;SDS011;4307;53.868;11.680;2024-03-23T11:16:14;4.97;;;2.27;;
8538;SDS011;4307;53.868;11.680;2024-03-23T11:18:41;5.43;;;2.40;;
8538;SDS011;4307;53.868;11.680;2024-03-23T11:21:08;7.50;;;2.10;;
8538;SDS011;4307;53.868;11.680;2024-03-23T11:23:35;8.03;;;3.03;;
8538;SDS011;4307;53.868;11.680;2024-03-23T11:26:01;5.07;;;2.00;;
8538;SDS011;4307;53.868;11.680;2024-03-23T11:28:30;5.97;;;2.23;;
8538;SDS011;4307;53.868;11.680;2024-03-23T11:30:56;7.60;;;2.23;;
8538;SDS011;4307;53.868;11.680;2024-03-23T11:33:22;7.07;;;2.90;;
8538;SDS011;4307;53.868;11.680;2024-03-23T11:35:48;6.53;;;2.60;;
8538;SDS011;4307;53.868;11.680;2024-03-23T11:38:16;6.50;;;2.53;;
8538;SDS011;4307;53.868;11.680;2024-03-23T11:40:43;7.13;;;3.07;;
8538;SDS011;4307;53.868;11.680;2024-03-23T11:43:11;10.50;;;3.23;;
8538;SDS011;4307;53.868;11.680;2024-03-23T11:45:40;9.70;;;2.53;;
8538;SDS011;4307;53.868;11.680;2024-03-23T11:48:09;10.90;;;2.70;;
8538;SDS011;4307;53.868;11.680;2024-03-23T11:50:36;6.33;;;2.00;;
8538;SDS011;4307;53.868;11.680;2024-03-23T11:53:06;6.57;;;2.00;;
8538;SDS011;4307;53.868;11.680;2024-03-23T11:55:40;6.07;;;2.33;;
8538;SDS011;4307;53.868;11.680;2024-03-23T11:58:08;3.67;;;1.70;;
8538;SDS011;4307;53.868;11.680;2024-03-23T12:00:34;2.33;;;1.50;;
8538;SDS011;4307;53.868;11.680;2024-03-23T12:03:02;3.33;;;1.60;;
8538;SDS011;4307;53.868;11.680;2024-03-23T12:05:28;4.87;;;1.67;;
8538;SDS011;4307;53.868;11.680;2024-03-23T12:07:55;7.30;;;1.90;;
8538;SDS011;4307;53.868;11.680;2024-03-23T12:10:40;5.87;;;1.93;;
8538;SDS011;4307;53.868;11.680;2024-03-23T12:13:06;5.37;;;1.30;;
8538;SDS011;4307;53.868;11.680;2024-03-23T12:15:32;4.37;;;1.40;;
8538;SDS011;4307;53.868;11.680;2024-03-23T12:18:09;4.43;;;1.93;;
8538;SDS011;4307;53.868;11.680;2024-03-23T12:20:35;4.60;;;1.50;;
8538;SDS011;4307;53.868;11.680;2024-03-23T12:23:07;3.40;;;1.43;;
8538;SDS011;4307;53.868;11.680;2024-03-23T12:25:34;6.60;;;2.50;;
8538;SDS011;4307;53.868;11.680;2024-03-23T12:28:02;7.70;;;2.10;;
8538;SDS011;4307;53.868;11.680;2024-03-23T12:30:28;6.07;;;2.20;;
8538;SDS011;4307;53.868;11.680;2024-03-23T12:32:54;5.40;;;2.33;;
8538;SDS011;4307;53.868;11.680;2024-03-23T12:35:21;5.97;;;1.80;;
8538;SDS011;4307;53.868;11.680;2024-03-23T12:37:48;4.50;;;1.43;;
8538;SDS011;4307;53.868;11.680;2024-03-23T12:40:14;5.67;;;1.90;;
8538;SDS011;4307;53.868;11.680;2024-03-23T12:42:40;6.13;;;1.90;;
8538;SDS011;4307;53.868;11.680;2024-03-23T12:45:07;6.53;;;1.67;;
8538;SDS011;4307;53.868;11.680;2024-03-23T12:47:34;5.97;;;1.83;;
8538;SDS011;4307;53.868;11.680;2024-03-23T12:49:59;5.60;;;1.60;;
8538;SDS011;4307;53.868;11.680;2024-03-23T12:52:28;5.90;;;1.50;;
8538;SDS011;4307;53.868;11.680;2024-03-23T12:54:55;5.50;;;1.80;;
8538;SDS011;4307;53.868;11.680;2024-03-23T12:57:22;5.63;;;1.60;;
8538;SDS011;4307;53.868;11.680;2024-03-23T12:59:49;7.97;;;2.03;;
8538;SDS011;4307;53.868;11.680;2024-03-23T13:02:16;5.57;;;1.90;;
8538;SDS011;4307;53.868;11.680;2024-03-23T13:04:43;5.40;;;1.60;;
8538;SDS011;4307;53.868;11.680;2024-03-23T13:07:10;3.80;;;1.13;;
8538;SDS011;4307;53.868;11.680;2024-03-23T13:09:37;2.47;;;0.80;;
8538;SDS011;4307;53.868;11.680;2024-03-23T13:12:04;0.73;;;0.47;;
8538;SDS011;4307;53.868;11.680;2024-03-23T13:14:30;1.10;;;0.77;;
8538;SDS011;4307;53.868;11.680;2024-03-23T13:16:56;1.50;;;0.67;;
8538;SDS011;4307;53.868;11.680;2024-03-23T13:19:22;0.60;;;0.60;;
8538;SDS011;4307;53.868;11.680;2024-03-23T13:21:52;2.80;;;1.00;;
8538;SDS011;4307;53.868;11.680;2024-03-23T13:24:20;4.10;;;1.30;;
8538;SDS011;4307;53.868;11.680;2024-03-23T13:26:50;3.87;;;1.50;;
8538;SDS011;4307;53.868;11.680;2024-03-23T13:29:17;5.37;;;1.63;;
8538;SDS011;4307;53.868;11.680;2024-03-23T13:31:43;7.07;;;1.77;;
8538;SDS011;4307;53.868;11.680;2024-03-23T13:34:09;5.00;;;1.80;;
8538;SDS011;4307;53.868;11.680;2024-03-23T13:36:36;5.53;;;1.80;;
8538;SDS011;4307;53.868;11.680;2024-03-23T13:39:02;7.03;;;2.30;;
8538;SDS011;4307;53.868;11.680;2024-03-23T13:41:31;4.80;;;1.70;;
8538;SDS011;4307;53.868;11.680;2024-03-23T13:43:58;2.80;;;1.43;;
8538;SDS011;4307;53.868;11.680;2024-03-23T13:46:25;6.30;;;2.10;;
8538;SDS011;4307;53.868;11.680;2024-03-23T13:48:50;2.97;;;1.60;;
8538;SDS011;4307;53.868;11.680;2024-03-23T13:51:22;4.67;;;2.13;;
8538;SDS011;4307;53.868;11.680;2024-03-23T13:53:49;3.83;;;1.73;;
8538;SDS011;4307;53.868;11.680;2024-03-23T13:56:16;6.27;;;2.10;;
8538;SDS011;4307;53.868;11.680;2024-03-23T13:58:42;2.97;;;1.70;;
8538;SDS011;4307;53.868;11.680;2024-03-23T14:01:13;2.53;;;1.90;;
8538;SDS011;4307;53.868;11.680;2024-03-23T14:03:39;6.27;;;2.50;;
8538;SDS011;4307;53.868;11.680;2024-03-23T14:06:06;9.10;;;2.40;;
8538;SDS011;4307;53.868;11.680;2024-03-23T14:08:32;6.43;;;2.20;;
8538;SDS011;4307;53.868;11.680;2024-03-23T14:11:01;6.90;;;2.50;;
8538;SDS011;4307;53.868;11.680;2024-03-23T14:13:28;4.10;;;2.30;;
8538;SDS011;4307;53.868;11.680;2024-03-23T14:15:55;5.13;;;2.17;;
8538;SDS011;4307;53.868;11.680;2024-03-23T14:18:22;2.03;;;0.80;;
8538;SDS011;4307;53.868;11.680;2024-03-23T14:20:49;1.10;;;0.53;;
8538;SDS011;4307;53.868;11.680;2024-03-23T14:23:15;4.10;;;1.17;;
8538;SDS011;4307;53.868;11.680;2024-03-23T14:25:42;1.07;;;0.80;;
8538;SDS011;4307;53.868;11.680;2024-03-23T14:28:07;1.53;;;0.80;;
8538;SDS011;4307;53.868;11.680;2024-03-23T14:30:39;2.00;;;1.00;;
8538;SDS011;4307;53.868;11.680;2024-03-23T14:33:05;3.57;;;0.70;;
8538;SDS011;4307;53.868;11.680;2024-03-23T14:35:33;2.43;;;0.80;;
8538;SDS011;4307;53.868;11.680;2024-03-23T14:37:58;1.13;;;0.90;;
8538;SDS011;4307;53.868;11.680;2024-03-23T14:40:25;1.50;;;1.03;;
8538;SDS011;4307;53.868;11.680;2024-03-23T14:42:52;1.53;;;0.93;;
8538;SDS011;4307;53.868;11.680;2024-03-23T14:45:19;2.43;;;0.83;;
8538;SDS011;4307;53.868;11.680;2024-03-23T14:47:45;1.80;;;1.00;;
8538;SDS011;4307;53.868;11.680;2024-03-23T14:50:11;2.47;;;0.97;;
8538;SDS011;4307;53.868;11.680;2024-03-23T14:52:41;2.37;;;0.93;;
8538;SDS011;4307;53.868;11.680;2024-03-23T14:55:08;2.50;;;1.20;;
8538;SDS011;4307;53.868;11.680;2024-03-23T14:57:34;4.40;;;1.20;;
8538;SDS011;4307;53.868;11.680;2024-03-23T15:00:01;2.80;;;0.83;;
8538;SDS011;4307;53.868;11.680;2024-03-23T15:02:30;4.20;;;1.10;;
8538;SDS011;4307;53.868;11.680;2024-03-23T15:04:57;2.73;;;1.00;;
8538;SDS011;4307;53.868;11.680;2024-03-23T15:07:23;2.83;;;1.67;;
8538;SDS011;4307;53.868;11.680;2024-03-23T15:09:50;2.97;;;1.33;;
8538;SDS011;4307;53.868;11.680;2024-03-23T15:12:18;2.13;;;1.07;;
8538;SDS011;4307;53.868;11.680;2024-03-23T15:14:44;3.93;;;1.30;;
8538;SDS011;4307;53.868;11.680;2024-03-23T15:17:11;2.07;;;0.60;;
8538;SDS011;4307;53.868;11.680;2024-03-23T15:19:37;1.70;;;0.93;;
8538;SDS011;4307;53.868;11.680;2024-03-23T15:22:03;5.60;;;1.30;;
8538;SDS011;4307;53.868;11.680;2024-03-23T15:24:29;1.20;;;0.70;;
8538;SDS011;4307;53.868;11.680;2024-03-23T15:26:58;1.63;;;1.10;;
8538;SDS011;4307;53.868;11.680;2024-03-23T15:29:24;1.67;;;1.10;;
8538;SDS011;4307;53.868;11.680;2024-03-23T15:31:50;1.50;;;1.27;;
8538;SDS011;4307;53.868;11.680;2024-03-23T15:34:17;3.50;;;1.10;;
8538;SDS011;4307;53.868;11.680;2024-03-23T15:36:46;6.23;;;1.33;;
8538;SDS011;4307;53.868;11.680;2024-03-23T15:39:13;3.70;;;0.90;;
8538;SDS011;4307;53.868;11.680;2024-03-23T15:41:39;4.73;;;1.50;;
8538;SDS011;4307;53.868;11.680;2024-03-23T15:44:07;4.00;;;1.07;;
8538;SDS011;4307;53.868;11.680;2024-03-23T15:46:33;3.03;;;1.23;;